Kezdőlap
METAR-TAF:

METAR-TAF

Repülőterek :

Annecy, Franciaország

földrajzi szélesség: 45-55-45N, földrajzi hosszúság: 006-05-56E, magasság: 463 m

Jelenlegi meteorológiai megfigyelések

A jelentés 43 perccel ezelõtt készült, 19:30 UTC
Északkeleti szél 4 kt
Hőmérséklet 6°C
Páratartalom 81%
Légköri nyomás 1033 hPa
Látótávolság 10 km, vagy több
felhőtlen 1500 m magasságban, és nincs gomolyfelhõ

METAR: LFLP 221930Z AUTO 05004KT CAVOK 06/03 Q1033 NOSIG

Idő: 21:13 (20:13 UTC)

Előrejelzés

A jelentés 6 órával és 13 perccel ezelõtt készült, 14:00 UTC
Az előrejelzés 22-én 15 óra UTC és 23-én 15 óra UTC között érvényes
Dél-délnyugati szél 6 kt
Látótávolság 10 km, vagy több
felhőtlen 1500 m magasságban, és nincs gomolyfelhõ
22-én 16 óra UTC és 22-én 18 óra UTC között fokozatosan kialakuló
Különbözõ irányokból fújó szél 3 kt

TAF: LFLP 221400Z 2215/2315 21006KT CAVOK BECMG 2216/2218 VRB03KT

Meteorológiai megfigyelések és előrejelzések több, mint 4000 repülőtéren (METAR és TAF jelentéseket).

A térképen piros és sárga pontok jelzik az elérhető meteorológiai állomásokat.

Mozgassa az egeret a pont fölött, hogy megjelenjen az állomás neve.

Azután kattintson az időjárási megfigyelések és előrejelzések megtekintéséhez.

A térkép megváltoztatása: kattintson a fekete keresztel jelölt zöld gombra ráközelítéshez, a vonallal jelölt zöld gombra távolításhoz, vagy a zöld nyilakra a szomszédos térképek eléréséhez.


METAR-TAF: